sensor_id;sensor_type;location;lat;lon;timestamp;pressure;altitude;pressure_sealevel;temperature;humidity
63097;BME280;49185;42.320;23.198;2022-12-18T09:23:23;96040.38;;;6.73;74.73
63097;BME280;49185;42.320;23.198;2022-12-18T09:25:48;96040.16;;;6.68;73.58
63097;BME280;49185;42.320;23.198;2022-12-18T09:28:16;96045.34;;;6.33;76.27
63097;BME280;49185;42.320;23.198;2022-12-18T09:30:45;96051.41;;;6.12;78.09
63097;BME280;49185;42.320;23.198;2022-12-18T09:33:11;96044.88;;;5.93;78.14
63097;BME280;49185;42.320;23.198;2022-12-18T09:35:37;96037.59;;;6.31;76.86
63097;BME280;49185;42.320;23.198;2022-12-18T09:38:02;96049.78;;;6.11;76.61
63097;BME280;49185;42.320;23.198;2022-12-18T09:40:34;96043.41;;;5.68;78.46
63097;BME280;49185;42.320;23.198;2022-12-18T09:43:03;96041.81;;;6.25;76.85
63097;BME280;49185;42.320;23.198;2022-12-18T09:45:39;96033.09;;;6.32;76.64
63097;BME280;49185;42.320;23.198;2022-12-18T09:48:14;96033.09;;;7.10;73.72
63097;BME280;49185;42.320;23.198;2022-12-18T09:50:42;96036.75;;;7.37;71.58
63097;BME280;49185;42.320;23.198;2022-12-18T09:53:17;96035.91;;;7.01;73.04
63097;BME280;49185;42.320;23.198;2022-12-18T09:55:46;96029.53;;;7.24;71.75
63097;BME280;49185;42.320;23.198;2022-12-18T09:58:32;96037.19;;;6.56;73.90
63097;BME280;49185;42.320;23.198;2022-12-18T10:01:01;96041.91;;;6.39;76.25
63097;BME280;49185;42.320;23.198;2022-12-18T10:03:27;96036.56;;;6.11;76.34
63097;BME280;49185;42.320;23.198;2022-12-18T10:06:22;96045.25;;;5.89;76.55
63097;BME280;49185;42.320;23.198;2022-12-18T10:11:51;96030.53;;;5.80;77.35
63097;BME280;49185;42.320;23.198;2022-12-18T10:17:20;96033.56;;;5.77;77.58
63097;BME280;49185;42.320;23.198;2022-12-18T10:19:59;96031.97;;;5.98;78.16
63097;BME280;49185;42.320;23.198;2022-12-18T10:22:54;96030.75;;;7.21;71.03
63097;BME280;49185;42.320;23.198;2022-12-18T10:25:34;96021.41;;;6.97;72.69
63097;BME280;49185;42.320;23.198;2022-12-18T10:28:12;96027.56;;;7.04;73.48
63097;BME280;49185;42.320;23.198;2022-12-18T10:30:42;96024.44;;;6.38;76.09
63097;BME280;49185;42.320;23.198;2022-12-18T10:33:17;96020.28;;;6.29;74.82
63097;BME280;49185;42.320;23.198;2022-12-18T10:35:43;96017.47;;;6.87;73.35
63097;BME280;49185;42.320;23.198;2022-12-18T10:38:29;96028.66;;;7.10;71.32
63097;BME280;49185;42.320;23.198;2022-12-18T10:43:31;96020.84;;;6.24;76.33
63097;BME280;49185;42.320;23.198;2022-12-18T10:48:54;96010.50;;;6.51;76.17
63097;BME280;49185;42.320;23.198;2022-12-18T10:54:01;96011.13;;;6.53;77.44
63097;BME280;49185;42.320;23.198;2022-12-18T10:56:28;96015.53;;;6.45;77.49
63097;BME280;49185;42.320;23.198;2022-12-18T10:59:00;96016.88;;;6.35;78.47
63097;BME280;49185;42.320;23.198;2022-12-18T11:01:26;96017.34;;;6.67;74.90
63097;BME280;49185;42.320;23.198;2022-12-18T11:06:22;96006.81;;;6.73;75.90
63097;BME280;49185;42.320;23.198;2022-12-18T11:08:58;96011.91;;;6.46;75.92
63097;BME280;49185;42.320;23.198;2022-12-18T11:11:24;96011.91;;;6.46;76.78
63097;BME280;49185;42.320;23.198;2022-12-18T11:14:06;96023.13;;;6.27;77.18
63097;BME280;49185;42.320;23.198;2022-12-18T11:16:46;96017.25;;;6.32;78.23
63097;BME280;49185;42.320;23.198;2022-12-18T11:19:20;96019.31;;;6.58;77.35
63097;BME280;49185;42.320;23.198;2022-12-18T11:21:46;96015.19;;;6.27;77.29
63097;BME280;49185;42.320;23.198;2022-12-18T11:24:40;96023.78;;;6.14;78.19
63097;BME280;49185;42.320;23.198;2022-12-18T11:27:05;96025.69;;;6.42;78.24
63097;BME280;49185;42.320;23.198;2022-12-18T11:29:40;96023.25;;;6.69;77.29
63097;BME280;49185;42.320;23.198;2022-12-18T11:32:24;96027.84;;;7.16;75.01
63097;BME280;49185;42.320;23.198;2022-12-18T11:37:41;96029.91;;;6.86;74.75
63097;BME280;49185;42.320;23.198;2022-12-18T11:40:30;96028.94;;;6.44;76.79
63097;BME280;49185;42.320;23.198;2022-12-18T11:43:08;96043.81;;;6.23;78.31
63097;BME280;49185;42.320;23.198;2022-12-18T11:45:43;96038.47;;;6.17;78.48
63097;BME280;49185;42.320;23.198;2022-12-18T11:50:46;96031.91;;;6.56;76.66
63097;BME280;49185;42.320;23.198;2022-12-18T11:53:13;96031.06;;;6.77;76.99
63097;BME280;49185;42.320;23.198;2022-12-18T12:01:03;96038.94;;;6.70;76.77
63097;BME280;49185;42.320;23.198;2022-12-18T12:06:33;96033.22;;;6.67;77.20
63097;BME280;49185;42.320;23.198;2022-12-18T12:12:10;96033.84;;;6.69;76.14
63097;BME280;49185;42.320;23.198;2022-12-18T12:18:06;96030.56;;;6.02;78.86
63097;BME280;49185;42.320;23.198;2022-12-18T12:23:15;96039.09;;;6.40;78.81
63097;BME280;49185;42.320;23.198;2022-12-18T12:25:54;96045.38;;;6.18;78.62
63097;BME280;49185;42.320;23.198;2022-12-18T12:39:38;96040.53;;;6.00;78.86
63097;BME280;49185;42.320;23.198;2022-12-18T12:42:13;96050.53;;;6.04;79.56
63097;BME280;49185;42.320;23.198;2022-12-18T12:44:51;96048.34;;;5.93;80.08
63097;BME280;49185;42.320;23.198;2022-12-18T12:47:26;96048.88;;;6.03;79.97
63097;BME280;49185;42.320;23.198;2022-12-18T12:49:54;96059.25;;;6.20;78.83
63097;BME280;49185;42.320;23.198;2022-12-18T12:52:40;96055.97;;;6.39;78.67
63097;BME280;49185;42.320;23.198;2022-12-18T12:55:22;96061.09;;;7.26;74.17
63097;BME280;49185;42.320;23.198;2022-12-18T13:00:38;96063.34;;;6.72;75.55
63097;BME280;49185;42.320;23.198;2022-12-18T13:06:01;96070.91;;;6.75;77.05
63097;BME280;49185;42.320;23.198;2022-12-18T13:08:31;96080.13;;;6.15;78.97
63097;BME280;49185;42.320;23.198;2022-12-18T13:10:59;96086.03;;;6.17;80.69
63097;BME280;49185;42.320;23.198;2022-12-18T13:13:25;96081.22;;;6.92;76.61
63097;BME280;49185;42.320;23.198;2022-12-18T13:16:06;96093.84;;;6.68;77.78
63097;BME280;49185;42.320;23.198;2022-12-18T13:18:33;96091.66;;;6.29;80.44
63097;BME280;49185;42.320;23.198;2022-12-18T13:23:29;96103.41;;;6.26;80.86
63097;BME280;49185;42.320;23.198;2022-12-18T13:31:00;96106.25;;;5.95;80.43
63097;BME280;49185;42.320;23.198;2022-12-18T13:36:09;96110.72;;;5.94;80.44
63097;BME280;49185;42.320;23.198;2022-12-18T13:38:38;96108.31;;;5.78;79.30
63097;BME280;49185;42.320;23.198;2022-12-18T13:41:22;96118.31;;;5.82;78.36
63097;BME280;49185;42.320;23.198;2022-12-18T13:43:55;96120.44;;;5.72;78.04
63097;BME280;49185;42.320;23.198;2022-12-18T13:49:02;96128.22;;;5.95;77.85
63097;BME280;49185;42.320;23.198;2022-12-18T13:51:29;96122.41;;;6.36;76.59
63097;BME280;49185;42.320;23.198;2022-12-18T13:54:17;96130.88;;;5.80;76.62
63097;BME280;49185;42.320;23.198;2022-12-18T13:56:45;96128.34;;;5.57;76.52
63097;BME280;49185;42.320;23.198;2022-12-18T14:07:06;96127.97;;;5.30;76.32
63097;BME280;49185;42.320;23.198;2022-12-18T14:09:37;96136.63;;;5.39;76.45
63097;BME280;49185;42.320;23.198;2022-12-18T14:12:05;96136.63;;;5.39;76.38
63097;BME280;49185;42.320;23.198;2022-12-18T14:14:31;96129.22;;;5.35;76.51
63097;BME280;49185;42.320;23.198;2022-12-18T14:16:57;96126.34;;;5.29;76.21
63097;BME280;49185;42.320;23.198;2022-12-18T14:19:24;96135.16;;;5.37;76.76
63097;BME280;49185;42.320;23.198;2022-12-18T14:21:50;96131.50;;;5.38;77.29
63097;BME280;49185;42.320;23.198;2022-12-18T14:24:20;96137.44;;;5.40;77.45
63097;BME280;49185;42.320;23.198;2022-12-18T14:26:48;96139.81;;;5.49;76.69
63097;BME280;49185;42.320;23.198;2022-12-18T14:29:26;96142.34;;;5.43;76.07
63097;BME280;49185;42.320;23.198;2022-12-18T14:32:14;96145.72;;;5.37;77.86
63097;BME280;49185;42.320;23.198;2022-12-18T14:34:40;96146.94;;;5.49;78.62
63097;BME280;49185;42.320;23.198;2022-12-18T14:37:10;96143.53;;;5.55;78.60
63097;BME280;49185;42.320;23.198;2022-12-18T14:39:35;96152.91;;;5.58;76.42
63097;BME280;49185;42.320;23.198;2022-12-18T14:42:01;96156.34;;;5.43;76.74
63097;BME280;49185;42.320;23.198;2022-12-18T14:44:26;96155.53;;;5.43;78.08
63097;BME280;49185;42.320;23.198;2022-12-18T14:46:52;96159.09;;;5.35;77.23
63097;BME280;49185;42.320;23.198;2022-12-18T14:49:31;96154.97;;;5.32;77.42
63097;BME280;49185;42.320;23.198;2022-12-18T14:51:59;96161.09;;;5.48;75.99
63097;BME280;49185;42.320;23.198;2022-12-18T14:54:26;96166.28;;;5.26;77.22
63097;BME280;49185;42.320;23.198;2022-12-18T14:57:21;96167.75;;;5.44;77.13
63097;BME280;49185;42.320;23.198;2022-12-18T14:59:47;96169.09;;;5.25;76.85
63097;BME280;49185;42.320;23.198;2022-12-18T15:02:22;96161.88;;;5.19;78.06
63097;BME280;49185;42.320;23.198;2022-12-18T15:05:00;96169.72;;;5.27;76.40
63097;BME280;49185;42.320;23.198;2022-12-18T15:07:26;96161.69;;;5.20;78.46
63097;BME280;49185;42.320;23.198;2022-12-18T15:18:00;96166.22;;;5.11;79.04
63097;BME280;49185;42.320;23.198;2022-12-18T15:20:26;96158.88;;;5.07;79.08
63097;BME280;49185;42.320;23.198;2022-12-18T15:22:51;96164.84;;;5.01;78.61
63097;BME280;49185;42.320;23.198;2022-12-18T15:25:36;96167.56;;;4.92;79.80
63097;BME280;49185;42.320;23.198;2022-12-18T15:28:03;96169.91;;;4.87;80.43
63097;BME280;49185;42.320;23.198;2022-12-18T15:30:30;96155.66;;;4.97;79.71
63097;BME280;49185;42.320;23.198;2022-12-18T15:33:24;96166.72;;;4.92;80.65
63097;BME280;49185;42.320;23.198;2022-12-18T15:35:57;96161.81;;;4.89;81.26
63097;BME280;49185;42.320;23.198;2022-12-18T15:38:23;96164.38;;;4.97;80.72
63097;BME280;49185;42.320;23.198;2022-12-18T15:40:48;96161.47;;;5.75;77.47
63097;BME280;49185;42.320;23.198;2022-12-18T15:43:14;96158.09;;;5.66;76.66
63097;BME280;49185;42.320;23.198;2022-12-18T15:45:39;96164.56;;;5.33;78.13
63097;BME280;49185;42.320;23.198;2022-12-18T15:48:35;96169.66;;;5.50;76.69
63097;BME280;49185;42.320;23.198;2022-12-18T15:51:07;96175.41;;;4.78;78.95
63097;BME280;49185;42.320;23.198;2022-12-18T15:53:34;96180.41;;;4.18;82.30
63097;BME280;49185;42.320;23.198;2022-12-18T15:55:59;96172.47;;;3.78;83.59
63097;BME280;49185;42.320;23.198;2022-12-18T15:58:25;96167.78;;;3.57;84.62
63097;BME280;49185;42.320;23.198;2022-12-18T16:00:51;96169.44;;;3.58;84.70
63097;BME280;49185;42.320;23.198;2022-12-18T16:03:16;96176.22;;;3.28;85.74
63097;BME280;49185;42.320;23.198;2022-12-18T16:05:42;96178.69;;;3.13;86.13
63097;BME280;49185;42.320;23.198;2022-12-18T16:08:07;96175.59;;;3.10;84.93
63097;BME280;49185;42.320;23.198;2022-12-18T16:10:33;96176.22;;;3.20;83.56
63097;BME280;49185;42.320;23.198;2022-12-18T16:12:59;96172.97;;;3.26;83.73
63097;BME280;49185;42.320;23.198;2022-12-18T16:15:25;96180.50;;;3.29;83.69
63097;BME280;49185;42.320;23.198;2022-12-18T16:17:51;96182.00;;;3.07;82.87
63097;BME280;49185;42.320;23.198;2022-12-18T16:20:19;96187.75;;;3.11;82.72
63097;BME280;49185;42.320;23.198;2022-12-18T16:22:45;96201.22;;;2.91;83.44
63097;BME280;49185;42.320;23.198;2022-12-18T16:25:30;96197.28;;;2.79;84.08
63097;BME280;49185;42.320;23.198;2022-12-18T16:27:56;96202.19;;;2.90;83.81
63097;BME280;49185;42.320;23.198;2022-12-18T16:30:24;96201.56;;;2.88;84.01
63097;BME280;49185;42.320;23.198;2022-12-18T16:32:50;96199.25;;;2.93;85.01
63097;BME280;49185;42.320;23.198;2022-12-18T16:35:16;96208.63;;;2.88;84.24
63097;BME280;49185;42.320;23.198;2022-12-18T16:37:42;96210.28;;;2.89;84.18
63097;BME280;49185;42.320;23.198;2022-12-18T16:40:10;96218.16;;;2.97;84.87
63097;BME280;49185;42.320;23.198;2022-12-18T16:42:38;96222.56;;;3.04;86.00
63097;BME280;49185;42.320;23.198;2022-12-18T16:45:05;96217.66;;;3.10;86.05
63097;BME280;49185;42.320;23.198;2022-12-18T16:47:31;96225.06;;;3.14;86.15
63097;BME280;49185;42.320;23.198;2022-12-18T16:49:56;96229.16;;;3.17;86.06
63097;BME280;49185;42.320;23.198;2022-12-18T16:52:22;96230.97;;;3.16;85.37
63097;BME280;49185;42.320;23.198;2022-12-18T16:54:47;96237.69;;;3.27;84.07
63097;BME280;49185;42.320;23.198;2022-12-18T16:57:15;96242.47;;;3.40;83.77
63097;BME280;49185;42.320;23.198;2022-12-18T16:59:41;96244.78;;;3.27;82.77
63097;BME280;49185;42.320;23.198;2022-12-18T17:02:16;96245.44;;;3.29;83.21
63097;BME280;49185;42.320;23.198;2022-12-18T17:04:42;96241.97;;;3.45;81.59
63097;BME280;49185;42.320;23.198;2022-12-18T17:07:08;96254.00;;;3.22;81.90
63097;BME280;49185;42.320;23.198;2022-12-18T17:09:34;96248.25;;;3.19;81.90
63097;BME280;49185;42.320;23.198;2022-12-18T17:12:00;96251.84;;;3.34;81.10
63097;BME280;49185;42.320;23.198;2022-12-18T17:14:25;96259.75;;;3.26;80.78
63097;BME280;49185;42.320;23.198;2022-12-18T17:16:52;96263.34;;;3.17;81.04
63097;BME280;49185;42.320;23.198;2022-12-18T17:19:18;96271.72;;;3.20;80.92
63097;BME280;49185;42.320;23.198;2022-12-18T17:21:47;96269.78;;;3.47;80.00
63097;BME280;49185;42.320;23.198;2022-12-18T17:24:13;96265.72;;;4.48;75.93
63097;BME280;49185;42.320;23.198;2022-12-18T17:26:38;96259.47;;;4.72;74.04
63097;BME280;49185;42.320;23.198;2022-12-18T17:29:04;96272.13;;;4.77;73.62
63097;BME280;49185;42.320;23.198;2022-12-18T17:31:30;96275.84;;;4.60;73.73
63097;BME280;49185;42.320;23.198;2022-12-18T17:33:57;96274.13;;;4.35;75.41
63097;BME280;49185;42.320;23.198;2022-12-18T17:36:23;96277.63;;;4.67;73.21
63097;BME280;49185;42.320;23.198;2022-12-18T17:38:55;96279.56;;;4.73;73.23
63097;BME280;49185;42.320;23.198;2022-12-18T17:41:21;96288.56;;;4.48;73.42
63097;BME280;49185;42.320;23.198;2022-12-18T17:43:54;96287.22;;;4.12;74.90
63097;BME280;49185;42.320;23.198;2022-12-18T17:46:21;96282.63;;;4.14;73.84
63097;BME280;49185;42.320;23.198;2022-12-18T17:48:47;96287.66;;;3.85;75.80
63097;BME280;49185;42.320;23.198;2022-12-18T17:51:13;96285.81;;;3.77;76.73
63097;BME280;49185;42.320;23.198;2022-12-18T17:53:39;96280.28;;;3.64;77.22
63097;BME280;49185;42.320;23.198;2022-12-18T17:56:06;96294.03;;;3.98;76.21
63097;BME280;49185;42.320;23.198;2022-12-18T17:58:33;96298.44;;;4.14;75.31
63097;BME280;49185;42.320;23.198;2022-12-18T18:00:59;96293.56;;;3.95;75.96
63097;BME280;49185;42.320;23.198;2022-12-18T18:03:26;96291.91;;;3.86;77.19
63097;BME280;49185;42.320;23.198;2022-12-18T18:05:56;96296.63;;;4.15;76.58
63097;BME280;49185;42.320;23.198;2022-12-18T18:08:24;96292.78;;;4.65;73.17
63097;BME280;49185;42.320;23.198;2022-12-18T18:10:50;96288.59;;;4.79;72.27
63097;BME280;49185;42.320;23.198;2022-12-18T18:13:24;96294.00;;;4.54;72.86
63097;BME280;49185;42.320;23.198;2022-12-18T18:15:56;96298.84;;;4.43;73.41
63097;BME280;49185;42.320;23.198;2022-12-18T18:18:22;96295.28;;;4.90;73.51
63097;BME280;49185;42.320;23.198;2022-12-18T18:20:48;96300.25;;;5.16;71.75
63097;BME280;49185;42.320;23.198;2022-12-18T18:23:14;96307.97;;;4.94;72.81
63097;BME280;49185;42.320;23.198;2022-12-18T18:25:39;96306.63;;;4.67;72.72
63097;BME280;49185;42.320;23.198;2022-12-18T18:28:05;96310.13;;;4.60;73.37
63097;BME280;49185;42.320;23.198;2022-12-18T18:30:30;96311.31;;;4.01;76.76
63097;BME280;49185;42.320;23.198;2022-12-18T18:32:56;96315.09;;;3.82;77.75
63097;BME280;49185;42.320;23.198;2022-12-18T18:35:52;96316.94;;;3.73;78.45
63097;BME280;49185;42.320;23.198;2022-12-18T18:38:17;96314.13;;;3.75;77.78
63097;BME280;49185;42.320;23.198;2022-12-18T18:40:43;96317.75;;;3.66;77.80
63097;BME280;49185;42.320;23.198;2022-12-18T18:43:08;96317.44;;;3.69;78.40
63097;BME280;49185;42.320;23.198;2022-12-18T18:45:35;96315.94;;;3.66;79.46
63097;BME280;49185;42.320;23.198;2022-12-18T18:48:00;96314.78;;;3.77;78.26
63097;BME280;49185;42.320;23.198;2022-12-18T18:50:26;96314.63;;;3.87;77.73
63097;BME280;49185;42.320;23.198;2022-12-18T18:52:51;96322.69;;;3.85;77.82
63097;BME280;49185;42.320;23.198;2022-12-18T18:55:16;96324.50;;;3.76;78.78
63097;BME280;49185;42.320;23.198;2022-12-18T18:57:42;96331.25;;;3.71;79.72
63097;BME280;49185;42.320;23.198;2022-12-18T19:00:08;96331.41;;;3.69;78.54
63097;BME280;49185;42.320;23.198;2022-12-18T19:02:34;96331.09;;;3.64;79.42
63097;BME280;49185;42.320;23.198;2022-12-18T19:05:00;96333.88;;;3.71;79.38
63097;BME280;49185;42.320;23.198;2022-12-18T19:07:26;96336.88;;;3.59;80.01
63097;BME280;49185;42.320;23.198;2022-12-18T19:13:13;96346.53;;;3.84;80.21
63097;BME280;49185;42.320;23.198;2022-12-18T19:15:38;96337.31;;;3.88;80.53
63097;BME280;49185;42.320;23.198;2022-12-18T19:18:04;96347.53;;;3.66;82.35
63097;BME280;49185;42.320;23.198;2022-12-18T19:20:29;96348.53;;;3.57;82.81
63097;BME280;49185;42.320;23.198;2022-12-18T19:22:55;96348.53;;;3.57;83.70
63097;BME280;49185;42.320;23.198;2022-12-18T19:25:22;96349.50;;;3.56;83.51
63097;BME280;49185;42.320;23.198;2022-12-18T19:27:47;96345.56;;;3.68;83.09
63097;BME280;49185;42.320;23.198;2022-12-18T19:30:13;96346.72;;;3.49;83.06
63097;BME280;49185;42.320;23.198;2022-12-18T19:32:38;96357.41;;;3.48;83.59
63097;BME280;49185;42.320;23.198;2022-12-18T19:35:04;96356.94;;;4.49;80.52
63097;BME280;49185;42.320;23.198;2022-12-18T19:37:30;96353.72;;;4.70;78.19
63097;BME280;49185;42.320;23.198;2022-12-18T19:39:55;96357.28;;;4.46;79.34
63097;BME280;49185;42.320;23.198;2022-12-18T19:42:21;96359.66;;;4.00;80.63
63097;BME280;49185;42.320;23.198;2022-12-18T19:44:46;96358.72;;;3.68;81.70
63097;BME280;49185;42.320;23.198;2022-12-18T19:47:12;96352.78;;;3.66;82.57
63097;BME280;49185;42.320;23.198;2022-12-18T19:49:37;96358.88;;;3.50;82.83
63097;BME280;49185;42.320;23.198;2022-12-18T19:52:03;96354.09;;;3.54;82.83
63097;BME280;49185;42.320;23.198;2022-12-18T19:54:28;96364.00;;;3.44;83.81
63097;BME280;49185;42.320;23.198;2022-12-18T19:56:54;96364.97;;;3.42;82.60
63097;BME280;49185;42.320;23.198;2022-12-18T19:59:19;96360.88;;;3.40;80.36
63097;BME280;49185;42.320;23.198;2022-12-18T20:01:45;96370.84;;;3.36;78.40
63097;BME280;49185;42.320;23.198;2022-12-18T20:04:10;96370.72;;;3.46;78.13
63097;BME280;49185;42.320;23.198;2022-12-18T20:06:48;96376.47;;;3.41;79.98
63097;BME280;49185;42.320;23.198;2022-12-18T20:09:13;96380.72;;;3.34;78.89
63097;BME280;49185;42.320;23.198;2022-12-18T20:11:39;96385.31;;;3.32;78.15
63097;BME280;49185;42.320;23.198;2022-12-18T20:14:05;96385.66;;;3.29;79.01
63097;BME280;49185;42.320;23.198;2022-12-18T20:16:30;96391.59;;;3.31;76.44
63097;BME280;49185;42.320;23.198;2022-12-18T20:18:56;96390.56;;;3.16;77.30
63097;BME280;49185;42.320;23.198;2022-12-18T20:21:21;96385.78;;;3.03;78.80
63097;BME280;49185;42.320;23.198;2022-12-18T20:23:47;96379.47;;;2.88;77.66
63097;BME280;49185;42.320;23.198;2022-12-18T20:26:13;96391.31;;;2.92;77.67
63097;BME280;49185;42.320;23.198;2022-12-18T20:28:38;96389.34;;;2.94;76.66
63097;BME280;49185;42.320;23.198;2022-12-18T20:31:05;96383.06;;;2.78;76.96
63097;BME280;49185;42.320;23.198;2022-12-18T20:33:31;96382.47;;;3.01;75.60
63097;BME280;49185;42.320;23.198;2022-12-18T20:36:05;96381.59;;;2.84;75.92
63097;BME280;49185;42.320;23.198;2022-12-18T20:38:32;96389.94;;;2.71;76.55
63097;BME280;49185;42.320;23.198;2022-12-18T20:40:58;96394.19;;;2.72;75.17
63097;BME280;49185;42.320;23.198;2022-12-18T20:43:24;96391.50;;;2.56;75.06
63097;BME280;49185;42.320;23.198;2022-12-18T20:45:50;96391.44;;;2.47;75.01
63097;BME280;49185;42.320;23.198;2022-12-18T20:48:15;96392.47;;;2.20;75.30
63097;BME280;49185;42.320;23.198;2022-12-18T20:50:40;96389.38;;;2.25;75.05
63097;BME280;49185;42.320;23.198;2022-12-18T20:53:06;96391.78;;;2.18;75.70
63097;BME280;49185;42.320;23.198;2022-12-18T20:55:31;96394.72;;;2.15;76.46
63097;BME280;49185;42.320;23.198;2022-12-18T20:57:57;96408.78;;;2.32;75.75
63097;BME280;49185;42.320;23.198;2022-12-18T21:00:22;96408.16;;;2.38;74.70
63097;BME280;49185;42.320;23.198;2022-12-18T21:02:48;96401.88;;;2.65;74.01
63097;BME280;49185;42.320;23.198;2022-12-18T21:05:13;96400.94;;;3.17;71.11
63097;BME280;49185;42.320;23.198;2022-12-18T21:07:39;96407.84;;;2.76;72.00
63097;BME280;49185;42.320;23.198;2022-12-18T21:10:05;96405.00;;;2.61;72.61
63097;BME280;49185;42.320;23.198;2022-12-18T21:12:30;96400.41;;;2.28;72.97
63097;BME280;49185;42.320;23.198;2022-12-18T21:14:56;96405.84;;;2.09;74.60
63097;BME280;49185;42.320;23.198;2022-12-18T21:17:22;96410.66;;;1.96;73.81
63097;BME280;49185;42.320;23.198;2022-12-18T21:19:47;96406.09;;;1.98;74.62
63097;BME280;49185;42.320;23.198;2022-12-18T21:22:13;96400.72;;;1.81;75.41
63097;BME280;49185;42.320;23.198;2022-12-18T21:24:38;96401.00;;;1.78;77.09
63097;BME280;49185;42.320;23.198;2022-12-18T21:27:03;96401.88;;;2.05;75.19
63097;BME280;49185;42.320;23.198;2022-12-18T21:29:29;96405.22;;;1.71;77.30
63097;BME280;49185;42.320;23.198;2022-12-18T21:31:54;96405.63;;;1.58;78.88
63097;BME280;49185;42.320;23.198;2022-12-18T21:34:25;96399.91;;;1.63;78.76
63097;BME280;49185;42.320;23.198;2022-12-18T21:36:52;96403.72;;;1.50;78.68
63097;BME280;49185;42.320;23.198;2022-12-18T21:39:18;96404.72;;;1.31;78.92
63097;BME280;49185;42.320;23.198;2022-12-18T21:41:44;96406.41;;;1.05;79.74
63097;BME280;49185;42.320;23.198;2022-12-18T21:44:14;96403.25;;;1.01;80.66
63097;BME280;49185;42.320;23.198;2022-12-18T21:46:43;96401.47;;;1.02;80.80
63097;BME280;49185;42.320;23.198;2022-12-18T21:49:10;96404.97;;;0.92;79.88
63097;BME280;49185;42.320;23.198;2022-12-18T21:51:36;96398.13;;;0.82;79.92
63097;BME280;49185;42.320;23.198;2022-12-18T21:54:02;96397.16;;;0.83;80.07
63097;BME280;49185;42.320;23.198;2022-12-18T21:59:23;96399.66;;;0.47;81.08
63097;BME280;49185;42.320;23.198;2022-12-18T22:01:50;96404.25;;;0.35;81.65
63097;BME280;49185;42.320;23.198;2022-12-18T22:04:17;96411.47;;;0.23;81.39
63097;BME280;49185;42.320;23.198;2022-12-18T22:06:44;96409.66;;;0.14;81.23
63097;BME280;49185;42.320;23.198;2022-12-18T22:09:12;96411.13;;;0.73;78.89
63097;BME280;49185;42.320;23.198;2022-12-18T22:11:38;96410.59;;;0.70;78.04
63097;BME280;49185;42.320;23.198;2022-12-18T22:14:04;96396.25;;;0.36;79.51
63097;BME280;49185;42.320;23.198;2022-12-18T22:16:29;96398.75;;;0.28;79.51
63097;BME280;49185;42.320;23.198;2022-12-18T22:18:55;96401.69;;;0.15;80.60
63097;BME280;49185;42.320;23.198;2022-12-18T22:21:25;96410.25;;;-0.02;80.37
63097;BME280;49185;42.320;23.198;2022-12-18T22:23:56;96417.94;;;1.12;74.51
63097;BME280;49185;42.320;23.198;2022-12-18T22:26:24;96422.25;;;0.48;76.96
63097;BME280;49185;42.320;23.198;2022-12-18T22:28:50;96417.69;;;0.03;77.19
63097;BME280;49185;42.320;23.198;2022-12-18T22:31:16;96425.72;;;-0.18;79.28
63097;BME280;49185;42.320;23.198;2022-12-18T22:33:41;96428.47;;;-0.40;80.17
63097;BME280;49185;42.320;23.198;2022-12-18T22:36:07;96424.06;;;-0.10;80.13
63097;BME280;49185;42.320;23.198;2022-12-18T22:38:32;96433.22;;;0.14;78.38
63097;BME280;49185;42.320;23.198;2022-12-18T22:40:58;96433.84;;;-0.12;79.13
63097;BME280;49185;42.320;23.198;2022-12-18T22:43:23;96441.38;;;0.11;78.81
63097;BME280;49185;42.320;23.198;2022-12-18T22:45:49;96433.97;;;-0.13;79.97
63097;BME280;49185;42.320;23.198;2022-12-18T22:48:14;96429.00;;;-0.16;79.98
63097;BME280;49185;42.320;23.198;2022-12-18T22:50:40;96429.56;;;-0.13;80.86
63097;BME280;49185;42.320;23.198;2022-12-18T22:53:05;96434.34;;;0.02;78.87
63097;BME280;49185;42.320;23.198;2022-12-18T22:55:31;96431.88;;;0.10;78.54
63097;BME280;49185;42.320;23.198;2022-12-18T22:57:56;96425.69;;;0.11;79.43
63097;BME280;49185;42.320;23.198;2022-12-18T23:00:21;96424.56;;;0.13;79.27
63097;BME280;49185;42.320;23.198;2022-12-18T23:02:47;96419.19;;;0.15;79.63
63097;BME280;49185;42.320;23.198;2022-12-18T23:05:12;96420.69;;;0.17;79.53
63097;BME280;49185;42.320;23.198;2022-12-18T23:07:38;96418.13;;;0.45;78.50
63097;BME280;49185;42.320;23.198;2022-12-18T23:10:03;96411.88;;;0.09;80.14
63097;BME280;49185;42.320;23.198;2022-12-18T23:12:29;96417.88;;;-0.09;80.96
63097;BME280;49185;42.320;23.198;2022-12-18T23:14:54;96417.03;;;0.01;80.60
63097;BME280;49185;42.320;23.198;2022-12-18T23:17:20;96412.72;;;0.09;80.33
63097;BME280;49185;42.320;23.198;2022-12-18T23:19:45;96412.94;;;0.35;79.62
63097;BME280;49185;42.320;23.198;2022-12-18T23:22:11;96415.63;;;0.53;79.06
63097;BME280;49185;42.320;23.198;2022-12-18T23:24:36;96419.66;;;0.75;78.17
63097;BME280;49185;42.320;23.198;2022-12-18T23:27:01;96419.53;;;0.40;78.60
63097;BME280;49185;42.320;23.198;2022-12-18T23:29:27;96427.00;;;0.25;79.76
63097;BME280;49185;42.320;23.198;2022-12-18T23:31:52;96422.75;;;0.24;79.42
63097;BME280;49185;42.320;23.198;2022-12-18T23:34:18;96426.47;;;0.21;79.74
63097;BME280;49185;42.320;23.198;2022-12-18T23:36:43;96429.34;;;0.28;79.61
63097;BME280;49185;42.320;23.198;2022-12-18T23:39:10;96433.94;;;-0.04;80.85
63097;BME280;49185;42.320;23.198;2022-12-18T23:41:36;96440.03;;;-0.13;81.96
63097;BME280;49185;42.320;23.198;2022-12-18T23:44:01;96436.19;;;-0.28;81.69
63097;BME280;49185;42.320;23.198;2022-12-18T23:46:34;96448.84;;;-0.43;82.29
63097;BME280;49185;42.320;23.198;2022-12-18T23:49:01;96453.38;;;-0.45;82.37
63097;BME280;49185;42.320;23.198;2022-12-18T23:51:28;96451.03;;;-0.48;82.34
63097;BME280;49185;42.320;23.198;2022-12-18T23:53:57;96457.81;;;-0.46;81.94
63097;BME280;49185;42.320;23.198;2022-12-18T23:56:23;96452.13;;;-0.41;81.75
63097;BME280;49185;42.320;23.198;2022-12-18T23:58:49;96459.56;;;-0.46;81.28
